Time;durP1;ratioP1;P1;durP2;ratioP2;P2;SDS_P1;SDS_P2;PMS_P1;PMS_P2;Temp;Humidity;BMP_temperature;BMP_pressure;BME280_temperature;BME280_humidity;BME280_pressure;Samples;Min_cycle;Max_cycle;Signal;HPM_P1;HPM_P2
2024/01/05 00:01:56;;;;;;;;;2.00;2.00;;;;;-144.62;100.00;60556.56;5044349;28;45299;-80
2024/01/05 00:04:21;;;;;;;;;4.67;2.00;;;;;-144.62;100.00;60556.56;5040694;28;45198;-79
2024/01/05 00:06:46;;;;;;;;;1.67;1.67;;;;;-144.62;100.00;60556.56;5040745;28;49223;-79
2024/01/05 00:09:12;;;;;;;;;6.33;1.67;;;;;-144.62;100.00;60556.56;5039566;27;51468;-79
2024/01/05 00:11:37;;;;;;;;;4.00;1.00;;;;;-144.62;100.00;60556.56;5041658;27;45203;-79
2024/01/05 00:14:02;;;;;;;;;2.00;2.00;;;;;-144.62;100.00;60556.56;5038017;28;45159;-79
2024/01/05 00:16:28;;;;;;;;;2.00;1.00;;;;;-144.62;100.00;60556.56;5040647;28;45417;-79
2024/01/05 00:18:53;;;;;;;;;2.00;0.00;;;;;-144.62;100.00;60556.56;5036826;28;45225;-79
2024/01/05 00:21:23;;;;;;;;;3.00;1.00;;;;;-144.62;100.00;60556.56;5039766;28;45650;-79
2024/01/05 00:23:50;;;;;;;;;1.00;1.00;;;;;-144.62;100.00;60556.56;5037518;28;45515;-80
2024/01/05 00:26:16;;;;;;;;;2.67;1.00;;;;;-144.62;100.00;60556.56;5040655;27;45414;-80
2024/01/05 00:28:42;;;;;;;;;1.00;1.00;;;;;-144.62;100.00;60556.56;5038563;28;45343;-80
2024/01/05 00:31:12;;;;;;;;;3.00;0.67;;;;;-144.62;100.00;60556.56;5041123;28;45540;-79
2024/01/05 00:33:38;;;;;;;;;2.67;1.00;;;;;-144.62;100.00;60556.56;5040255;28;45281;-79
2024/01/05 00:36:05;;;;;;;;;2.33;0.67;;;;;-144.62;100.00;60556.56;5039236;28;46769;-79
2024/01/05 00:38:30;;;;;;;;;2.00;1.00;;;;;-144.62;100.00;60556.56;5036105;28;45521;-79
2024/01/05 00:40:56;;;;;;;;;2.00;0.33;;;;;-144.62;100.00;60556.56;5041730;27;45393;-80
2024/01/05 00:43:21;;;;;;;;;1.00;1.00;;;;;-144.62;100.00;60556.56;5038229;28;45224;-79
2024/01/05 00:45:46;;;;;;;;;1.33;0.33;;;;;-144.62;100.00;60556.56;5037739;28;46550;-79
2024/01/05 00:48:11;;;;;;;;;0.00;0.00;;;;;-144.62;100.00;60556.56;5038307;28;45430;-79
2024/01/05 00:50:37;;;;;;;;;2.00;1.33;;;;;-144.62;100.00;60556.56;5039621;28;53303;-79
2024/01/05 00:53:02;;;;;;;;;2.00;1.00;;;;;-144.62;100.00;60556.56;5037443;27;45424;-79
2024/01/05 00:55:27;;;;;;;;;1.00;0.00;;;;;-144.62;100.00;60556.56;5039801;28;46226;-79
2024/01/05 00:57:53;;;;;;;;;2.00;1.00;;;;;-144.62;100.00;60556.56;5040432;28;45433;-79
2024/01/05 01:00:18;;;;;;;;;3.00;1.00;;;;;-144.62;100.00;60556.56;5041145;28;45379;-78
2024/01/05 01:02:43;;;;;;;;;0.33;0.33;;;;;-144.62;100.00;60556.56;5040563;28;45485;-79
2024/01/05 01:05:09;;;;;;;;;1.33;0.00;;;;;-144.62;100.00;60556.56;5039622;27;52190;-79
2024/01/05 01:07:34;;;;;;;;;2.33;2.00;;;;;-144.62;100.00;60556.56;5040175;27;45172;-79
2024/01/05 01:09:59;;;;;;;;;2.00;1.00;;;;;-144.62;100.00;60556.56;5039639;27;45396;-79
2024/01/05 01:12:26;;;;;;;;;0.00;0.00;;;;;-144.62;100.00;60556.56;5039610;28;45654;-79
2024/01/05 01:14:52;;;;;;;;;1.00;0.00;;;;;-144.62;100.00;60556.56;5040353;28;45485;-79
2024/01/05 01:17:17;;;;;;;;;0.67;0.67;;;;;-144.62;100.00;60556.56;5039389;28;45255;-79
2024/01/05 01:19:43;;;;;;;;;0.00;0.00;;;;;-144.62;100.00;60556.56;5039551;28;45283;-79
2024/01/05 01:22:08;;;;;;;;;0.33;0.33;;;;;-144.62;100.00;60556.56;5038161;27;45296;-79
2024/01/05 01:24:33;;;;;;;;;0.00;0.00;;;;;-144.62;100.00;60556.56;5037296;28;45704;-80
2024/01/05 01:26:59;;;;;;;;;0.00;0.00;;;;;-144.62;100.00;60556.56;5040342;27;45369;-79
2024/01/05 01:29:25;;;;;;;;;0.00;0.00;;;;;-144.62;100.00;60556.56;5039298;28;48140;-79
2024/01/05 01:31:50;;;;;;;;;0.00;0.00;;;;;-144.62;100.00;60556.56;5040534;28;45250;-79
2024/01/05 01:34:15;;;;;;;;;1.00;0.00;;;;;-144.62;100.00;60556.56;5039689;28;45254;-79
2024/01/05 01:36:41;;;;;;;;;0.00;0.00;;;;;-144.62;100.00;60556.56;5039996;27;45283;-78
2024/01/05 01:39:06;;;;;;;;;0.00;0.00;;;;;-144.62;100.00;60556.56;5030854;28;45422;-78
2024/01/05 01:41:32;;;;;;;;;0.00;0.00;;;;;-144.62;100.00;60556.56;5039545;28;45216;-79
2024/01/05 01:43:57;;;;;;;;;0.00;0.00;;;;;-144.62;100.00;60556.56;5037281;28;45499;-80
2024/01/05 01:46:23;;;;;;;;;0.33;0.00;;;;;-144.62;100.00;60556.56;5032573;28;45348;-79
2024/01/05 01:48:50;;;;;;;;;0.00;0.00;;;;;-144.62;100.00;60556.56;5035308;28;45220;-79
2024/01/05 01:51:15;;;;;;;;;1.33;0.00;;;;;-144.62;100.00;60556.56;5041069;28;45273;-79
2024/01/05 01:53:41;;;;;;;;;0.00;0.00;;;;;-144.62;100.00;60556.56;5035911;27;47205;-80
2024/01/05 01:56:10;;;;;;;;;0.00;0.00;;;;;-144.62;100.00;60556.56;5040286;28;45419;-79
2024/01/05 01:58:38;;;;;;;;;0.00;0.00;;;;;-144.62;100.00;60556.56;5032145;28;45322;-79
2024/01/05 02:01:05;;;;;;;;;0.00;0.00;;;;;-144.62;100.00;60556.56;5036354;27;45186;-80
2024/01/05 02:03:31;;;;;;;;;0.00;0.00;;;;;-144.62;100.00;60556.56;5034198;28;48200;-79
2024/01/05 02:05:56;;;;;;;;;0.00;0.00;;;;;-144.62;100.00;60556.56;5039919;28;45383;-79
2024/01/05 02:08:22;;;;;;;;;2.00;0.67;;;;;-144.62;100.00;60556.56;5039273;27;45434;-79
2024/01/05 02:10:48;;;;;;;;;0.00;0.00;;;;;-144.62;100.00;60556.56;5040873;28;45474;-79
2024/01/05 02:13:13;;;;;;;;;0.67;0.00;;;;;-144.62;100.00;60556.56;5038120;27;47561;-79
2024/01/05 02:15:38;;;;;;;;;0.00;0.00;;;;;-144.62;100.00;60556.56;5039991;28;45311;-79
2024/01/05 02:18:13;;;;;;;;;0.00;0.00;;;;;-144.62;100.00;60556.56;5038250;28;45481;-79
2024/01/05 02:20:38;;;;;;;;;0.00;0.00;;;;;-144.62;100.00;60556.56;5040568;28;45312;-79
2024/01/05 02:23:11;;;;;;;;;0.00;0.00;;;;;-144.62;100.00;60556.56;5035726;28;45575;-80
2024/01/05 02:25:38;;;;;;;;;0.00;0.00;;;;;-144.62;100.00;60556.56;5038414;28;45478;-79
2024/01/05 02:28:03;;;;;;;;;0.00;0.00;;;;;-144.62;100.00;60556.56;5036881;28;45466;-80
2024/01/05 02:30:29;;;;;;;;;1.00;0.00;;;;;-144.62;100.00;60556.56;5039851;28;45309;-80
2024/01/05 02:32:54;;;;;;;;;0.00;0.00;;;;;-144.62;100.00;60556.56;5032277;28;47183;-80
2024/01/05 02:35:19;;;;;;;;;0.00;0.00;;;;;-144.62;100.00;60556.56;5035584;28;45441;-80
2024/01/05 02:37:45;;;;;;;;;0.00;0.00;;;;;-144.62;100.00;60556.56;5034570;28;49423;-80
2024/01/05 02:40:11;;;;;;;;;0.00;0.00;;;;;-144.62;100.00;60556.56;5038434;28;45659;-80
2024/01/05 02:42:37;;;;;;;;;2.00;0.00;;;;;-144.62;100.00;60556.56;5036490;27;45299;-80
2024/01/05 02:45:02;;;;;;;;;0.00;0.00;;;;;-144.62;100.00;60556.56;5039561;28;45265;-80
2024/01/05 02:47:28;;;;;;;;;0.00;0.00;;;;;-144.62;100.00;60556.56;5036615;28;45325;-79
2024/01/05 02:49:53;;;;;;;;;0.00;0.00;;;;;-144.62;100.00;60556.56;5037979;28;45329;-79
2024/01/05 02:52:18;;;;;;;;;0.00;0.00;;;;;-144.62;100.00;60556.56;5040406;28;46741;-80
2024/01/05 02:54:44;;;;;;;;;0.00;0.00;;;;;-144.62;100.00;60556.56;5040715;28;48121;-79
2024/01/05 02:57:10;;;;;;;;;0.00;0.00;;;;;-144.62;100.00;60556.56;5041843;28;45462;-79
2024/01/05 02:59:36;;;;;;;;;0.00;0.00;;;;;-144.62;100.00;60556.56;5038682;27;45565;-79
2024/01/05 03:02:01;;;;;;;;;0.00;0.00;;;;;-144.62;100.00;60556.56;5041499;28;45737;-79
2024/01/05 03:04:26;;;;;;;;;0.00;0.00;;;;;-144.62;100.00;60556.56;5042084;28;45445;-79
2024/01/05 03:06:51;;;;;;;;;0.00;0.00;;;;;-144.62;100.00;60556.56;5039691;28;45739;-80
2024/01/05 03:09:17;;;;;;;;;1.00;0.00;;;;;-144.62;100.00;60556.56;5042433;27;45439;-79
2024/01/05 03:11:42;;;;;;;;;0.00;0.00;;;;;-144.62;100.00;60556.56;5041529;27;45593;-80
2024/01/05 03:14:08;;;;;;;;;0.00;0.00;;;;;-144.62;100.00;60556.56;5040157;28;53650;-80
2024/01/05 03:16:33;;;;;;;;;0.00;0.00;;;;;-144.62;100.00;60556.56;5042055;27;45472;-80
2024/01/05 03:18:58;;;;;;;;;0.00;0.00;;;;;-144.62;100.00;60556.56;5041223;28;45442;-80
2024/01/05 03:21:24;;;;;;;;;0.00;0.00;;;;;-144.62;100.00;60556.56;5042471;27;46476;-80
2024/01/05 03:23:49;;;;;;;;;0.00;0.00;;;;;-144.62;100.00;60556.56;5040490;28;45938;-80
2024/01/05 03:26:14;;;;;;;;;0.00;0.00;;;;;-144.62;100.00;60556.56;5042050;28;45226;-79
2024/01/05 03:28:40;;;;;;;;;1.33;0.00;;;;;-144.62;100.00;60556.56;5037941;27;45250;-80
2024/01/05 03:31:12;;;;;;;;;1.00;0.00;;;;;-144.62;100.00;60556.56;5041747;28;50406;-80
2024/01/05 03:33:37;;;;;;;;;0.67;0.00;;;;;-144.62;100.00;60556.56;5040947;28;45481;-80
2024/01/05 03:36:02;;;;;;;;;0.00;0.00;;;;;-144.62;100.00;60556.56;5041901;28;45437;-80
2024/01/05 03:38:28;;;;;;;;;1.00;1.00;;;;;-144.62;100.00;60556.56;5037438;28;45534;-80
2024/01/05 03:40:53;;;;;;;;;0.00;0.00;;;;;-144.62;100.00;60556.56;5036906;28;56731;-80
2024/01/05 03:43:18;;;;;;;;;0.00;0.00;;;;;-144.62;100.00;60556.56;5038901;28;45375;-80
2024/01/05 03:45:44;;;;;;;;;0.00;0.00;;;;;-144.62;100.00;60556.56;5039228;28;45359;-80
2024/01/05 03:48:10;;;;;;;;;0.00;0.00;;;;;-144.62;100.00;60556.56;5040505;28;45385;-79
2024/01/05 03:50:35;;;;;;;;;0.00;0.00;;;;;-144.62;100.00;60556.56;5040432;28;46473;-79
2024/01/05 03:53:00;;;;;;;;;1.00;0.00;;;;;-144.62;100.00;60556.56;5036755;28;52180;-80
2024/01/05 03:55:25;;;;;;;;;0.00;0.00;;;;;-144.62;100.00;60556.56;5041123;28;45293;-79
2024/01/05 03:57:51;;;;;;;;;0.00;0.00;;;;;-144.62;100.00;60556.56;5040913;28;47145;-79
2024/01/05 04:00:16;;;;;;;;;0.00;0.00;;;;;-144.62;100.00;60556.56;5041557;28;45500;-79
2024/01/05 04:02:42;;;;;;;;;0.00;0.00;;;;;-144.62;100.00;60556.56;5040398;28;45430;-79
2024/01/05 04:05:08;;;;;;;;;0.00;0.00;;;;;-144.62;100.00;60556.56;5040079;28;48993;-79
2024/01/05 04:07:35;;;;;;;;;1.00;0.00;;;;;-144.62;100.00;60556.56;5040248;27;45255;-80
2024/01/05 04:10:00;;;;;;;;;0.00;0.00;;;;;-144.62;100.00;60556.56;5038041;28;45374;-80
2024/01/05 04:12:25;;;;;;;;;0.00;0.00;;;;;-144.62;100.00;60556.56;5034493;27;45418;-79
2024/01/05 04:14:51;;;;;;;;;1.00;0.00;;;;;-144.62;100.00;60556.56;5041707;28;45362;-79
2024/01/05 04:17:16;;;;;;;;;0.00;0.00;;;;;-144.62;100.00;60556.56;5041492;28;45472;-80
2024/01/05 04:19:41;;;;;;;;;0.00;0.00;;;;;-144.62;100.00;60556.56;5040087;28;47127;-80
2024/01/05 04:22:07;;;;;;;;;0.00;0.00;;;;;-144.62;100.00;60556.56;5038271;28;45268;-79
2024/01/05 04:24:32;;;;;;;;;0.00;0.00;;;;;-144.62;100.00;60556.56;5038259;28;45365;-79
2024/01/05 04:26:58;;;;;;;;;0.00;0.00;;;;;-144.62;100.00;60556.56;5041106;28;45312;-80
2024/01/05 04:29:23;;;;;;;;;0.00;0.00;;;;;-144.62;100.00;60556.56;5039414;28;46411;-79
2024/01/05 04:31:48;;;;;;;;;0.00;0.00;;;;;-144.62;100.00;60556.56;5040998;28;45528;-80
2024/01/05 04:34:14;;;;;;;;;0.00;0.00;;;;;-144.62;100.00;60556.56;5039335;28;45626;-79
2024/01/05 04:36:39;;;;;;;;;0.00;0.00;;;;;-144.62;100.00;60556.56;5040045;27;45565;-80
2024/01/05 04:39:04;;;;;;;;;0.00;0.00;;;;;-144.62;100.00;60556.56;5036921;27;50875;-79
2024/01/05 04:41:30;;;;;;;;;0.00;0.00;;;;;-144.62;100.00;60556.56;5040784;28;45513;-79
2024/01/05 04:43:55;;;;;;;;;0.00;0.00;;;;;-144.62;100.00;60556.56;5035591;28;45304;-79
2024/01/05 04:46:21;;;;;;;;;2.00;1.00;;;;;-144.62;100.00;60556.56;5040000;28;45571;-79
2024/01/05 04:48:46;;;;;;;;;1.00;1.00;;;;;-144.62;100.00;60556.56;5034820;28;45960;-79
2024/01/05 04:51:12;;;;;;;;;0.00;0.00;;;;;-144.62;100.00;60556.56;5041096;28;45190;-79
2024/01/05 04:53:37;;;;;;;;;1.00;0.00;;;;;-144.62;100.00;60556.56;5038725;28;45941;-79
2024/01/05 04:56:03;;;;;;;;;0.00;0.00;;;;;-144.62;100.00;60556.56;5041588;28;45254;-79
2024/01/05 04:58:28;;;;;;;;;0.33;0.00;;;;;-144.62;100.00;60556.56;5035693;28;47258;-79
2024/01/05 05:00:54;;;;;;;;;1.00;0.00;;;;;-144.62;100.00;60556.56;5041230;28;45221;-80
2024/01/05 05:03:19;;;;;;;;;0.00;0.00;;;;;-144.62;100.00;60556.56;5039067;28;45415;-79
2024/01/05 05:05:44;;;;;;;;;0.00;0.00;;;;;-144.62;100.00;60556.56;5040962;28;45301;-79
2024/01/05 05:08:13;;;;;;;;;0.00;0.00;;;;;-144.62;100.00;60556.56;5040171;27;45388;-79
2024/01/05 05:10:38;;;;;;;;;0.00;0.00;;;;;-144.62;100.00;60556.56;5040930;27;45440;-80
2024/01/05 05:13:04;;;;;;;;;1.33;0.00;;;;;-144.62;100.00;60556.56;5039557;28;45400;-80
2024/01/05 05:15:29;;;;;;;;;1.00;1.00;;;;;-144.62;100.00;60556.56;5041245;28;45464;-79
2024/01/05 05:17:54;;;;;;;;;2.33;1.00;;;;;-144.62;100.00;60556.56;5035928;28;46307;-80
2024/01/05 05:20:20;;;;;;;;;0.00;0.00;;;;;-144.62;100.00;60556.56;5039621;27;45434;-80
2024/01/05 05:22:45;;;;;;;;;0.00;0.00;;;;;-144.62;100.00;60556.56;5036918;28;45515;-79
2024/01/05 05:25:11;;;;;;;;;0.00;0.00;;;;;-144.62;100.00;60556.56;5040784;28;45418;-79
2024/01/05 05:27:36;;;;;;;;;0.00;0.00;;;;;-144.62;100.00;60556.56;5037825;27;45528;-79
2024/01/05 05:30:06;;;;;;;;;0.00;0.00;;;;;-144.62;100.00;60556.56;5033746;28;47319;-79
2024/01/05 05:32:31;;;;;;;;;0.00;0.00;;;;;-144.62;100.00;60556.56;5038878;28;45345;-79
2024/01/05 05:34:58;;;;;;;;;4.67;0.00;;;;;-144.62;100.00;60556.56;5041083;28;45392;-80
2024/01/05 05:37:23;;;;;;;;;0.67;0.67;;;;;-144.62;100.00;60556.56;5035329;28;46575;-79
2024/01/05 05:39:48;;;;;;;;;1.00;1.00;;;;;-144.62;100.00;60556.56;5035877;28;45421;-80
2024/01/05 05:42:14;;;;;;;;;0.00;0.00;;;;;-144.62;100.00;60556.56;5038091;27;45440;-80
2024/01/05 05:44:39;;;;;;;;;0.00;0.00;;;;;-144.62;100.00;60556.56;5037507;28;45246;-79
2024/01/05 05:47:04;;;;;;;;;2.00;1.00;;;;;-144.62;100.00;60556.56;5039302;28;47250;-79
2024/01/05 05:49:30;;;;;;;;;2.33;0.00;;;;;-144.62;100.00;60556.56;5037987;28;45373;-80
2024/01/05 05:51:55;;;;;;;;;1.00;0.00;;;;;-144.62;100.00;60556.56;5040331;28;46516;-80
2024/01/05 05:54:20;;;;;;;;;1.00;0.00;;;;;-144.62;100.00;60556.56;5039070;28;45638;-80
2024/01/05 05:56:46;;;;;;;;;0.00;0.00;;;;;-144.62;100.00;60556.56;5038464;27;46307;-79
2024/01/05 05:59:11;;;;;;;;;1.00;1.00;;;;;-144.62;100.00;60556.56;5040073;28;45174;-80
2024/01/05 06:01:36;;;;;;;;;0.00;0.00;;;;;-144.62;100.00;60556.56;5039768;27;46356;-79
2024/01/05 06:04:03;;;;;;;;;1.00;1.00;;;;;-144.62;100.00;60556.56;5039027;27;45729;-80
2024/01/05 06:06:28;;;;;;;;;0.00;0.00;;;;;-144.62;100.00;60556.56;5039379;28;45556;-80
2024/01/05 06:08:54;;;;;;;;;2.00;1.00;;;;;-144.62;100.00;60556.56;5039144;27;45303;-80
2024/01/05 06:11:20;;;;;;;;;2.33;2.00;;;;;-144.62;100.00;60556.56;5039972;28;45243;-80
2024/01/05 06:13:46;;;;;;;;;1.00;1.00;;;;;-144.62;100.00;60556.56;5039799;28;45383;-80
2024/01/05 06:16:12;;;;;;;;;0.00;0.00;;;;;-144.62;100.00;60556.56;5039844;28;45402;-80
2024/01/05 06:18:39;;;;;;;;;0.00;0.00;;;;;-144.62;100.00;60556.56;5031959;28;45387;-80
2024/01/05 06:21:04;;;;;;;;;0.00;0.00;;;;;-144.62;100.00;60556.56;5040150;28;45346;-80
2024/01/05 06:23:30;;;;;;;;;0.00;0.00;;;;;-144.62;100.00;60556.56;5032058;28;45290;-80
2024/01/05 06:25:56;;;;;;;;;0.00;0.00;;;;;-144.62;100.00;60556.56;5039671;28;48096;-80
2024/01/05 06:28:21;;;;;;;;;1.00;1.00;;;;;-144.62;100.00;60556.56;5032734;28;45304;-80
2024/01/05 06:30:47;;;;;;;;;0.00;0.00;;;;;-144.62;100.00;60556.56;5039900;28;45367;-79
2024/01/05 06:33:12;;;;;;;;;1.00;0.00;;;;;-144.62;100.00;60556.56;5036481;28;45373;-80
2024/01/05 06:35:37;;;;;;;;;1.00;1.00;;;;;-144.62;100.00;60556.56;5029352;28;55252;-80
2024/01/05 06:38:03;;;;;;;;;0.00;0.00;;;;;-144.62;100.00;60556.56;5034399;28;49319;-80
2024/01/05 06:40:28;;;;;;;;;0.00;0.00;;;;;-144.62;100.00;60556.56;5039247;27;45426;-80
2024/01/05 06:42:54;;;;;;;;;0.33;0.33;;;;;-144.62;100.00;60556.56;5038096;28;45275;-80
2024/01/05 06:45:20;;;;;;;;;1.00;1.00;;;;;-144.62;100.00;60556.56;5039337;28;45534;-81
2024/01/05 06:47:45;;;;;;;;;0.00;0.00;;;;;-144.62;100.00;60556.56;5038599;27;45382;-81
2024/01/05 06:50:11;;;;;;;;;0.67;0.67;;;;;-144.62;100.00;60556.56;5034003;28;45314;-81
2024/01/05 06:52:36;;;;;;;;;1.00;1.00;;;;;-144.62;100.00;60556.56;5039700;27;46339;-79
2024/01/05 06:55:03;;;;;;;;;0.00;0.00;;;;;-144.62;100.00;60556.56;5033724;28;45572;-80
2024/01/05 06:57:29;;;;;;;;;0.00;0.00;;;;;-144.62;100.00;60556.56;5038612;28;46594;-80
2024/01/05 06:59:54;;;;;;;;;2.00;0.00;;;;;-144.62;100.00;60556.56;5035690;28;45443;-79
2024/01/05 07:02:19;;;;;;;;;0.00;0.00;;;;;-144.62;100.00;60556.56;5034232;28;46275;-80
2024/01/05 07:04:45;;;;;;;;;1.00;0.00;;;;;-144.62;100.00;60556.56;5037030;28;45372;-81
2024/01/05 07:07:10;;;;;;;;;0.33;0.33;;;;;-144.62;100.00;60556.56;5038487;28;45402;-81
2024/01/05 07:09:35;;;;;;;;;0.33;0.00;;;;;-144.62;100.00;60556.56;5037818;27;45385;-80
2024/01/05 07:12:02;;;;;;;;;1.33;1.33;;;;;-144.62;100.00;60556.56;5043044;28;45221;-79
2024/01/05 07:14:28;;;;;;;;;1.67;0.00;;;;;-144.62;100.00;60556.56;5038886;28;46067;-81
2024/01/05 07:16:57;;;;;;;;;1.00;1.00;;;;;-144.62;100.00;60556.56;5037871;28;45376;-80
2024/01/05 07:19:23;;;;;;;;;1.00;1.00;;;;;-144.62;100.00;60556.56;5035757;27;45449;-80
2024/01/05 07:21:48;;;;;;;;;1.00;1.00;;;;;-144.62;100.00;60556.56;5042941;28;45315;-79
2024/01/05 07:24:15;;;;;;;;;2.00;0.67;;;;;-144.62;100.00;60556.56;5036029;28;45469;-80
2024/01/05 07:26:40;;;;;;;;;0.00;0.00;;;;;-144.62;100.00;60556.56;5038226;28;45481;-82
2024/01/05 07:29:06;;;;;;;;;2.67;1.00;;;;;-144.62;100.00;60556.56;5037435;28;45522;-79
2024/01/05 07:31:31;;;;;;;;;1.00;1.00;;;;;-144.62;100.00;60556.56;5038541;28;45540;-79
2024/01/05 07:33:56;;;;;;;;;2.00;0.00;;;;;-144.62;100.00;60556.56;5031744;28;45270;-79
2024/01/05 07:36:22;;;;;;;;;1.67;1.00;;;;;-144.62;100.00;60556.56;5036982;28;45314;-81
2024/01/05 07:38:48;;;;;;;;;1.00;1.00;;;;;-144.62;100.00;60556.56;5032567;28;45460;-78
2024/01/05 07:41:18;;;;;;;;;1.00;1.00;;;;;-144.62;100.00;60556.56;5040658;27;45454;-79
2024/01/05 07:43:44;;;;;;;;;2.00;2.00;;;;;-144.62;100.00;60556.56;5038526;27;47405;-79
2024/01/05 07:46:10;;;;;;;;;2.67;1.33;;;;;-144.62;100.00;60556.56;5042181;28;45361;-81
2024/01/05 07:48:38;;;;;;;;;0.00;0.00;;;;;-144.62;100.00;60556.56;5041884;28;45346;-80
2024/01/05 07:51:04;;;;;;;;;1.00;1.00;;;;;-144.62;100.00;60556.56;5035729;28;45624;-80
2024/01/05 07:53:29;;;;;;;;;2.00;2.00;;;;;-144.62;100.00;60556.56;5037839;27;45441;-80
2024/01/05 07:55:55;;;;;;;;;1.00;1.00;;;;;-144.62;100.00;60556.56;5036106;27;52846;-79
2024/01/05 07:58:20;;;;;;;;;1.33;1.33;;;;;-144.62;100.00;60556.56;5037910;28;45469;-79
2024/01/05 08:00:46;;;;;;;;;1.33;1.33;;;;;-144.62;100.00;60556.56;5057384;28;45357;-79
2024/01/05 08:03:12;;;;;;;;;3.00;1.00;;;;;-144.62;100.00;60556.56;5031513;28;47393;-78
2024/01/05 08:05:38;;;;;;;;;1.33;1.33;;;;;-144.62;100.00;60556.56;5045188;28;45441;-77
2024/01/05 08:08:04;;;;;;;;;2.00;2.00;;;;;-144.62;100.00;60556.56;5039438;27;45324;-79
2024/01/05 08:10:30;;;;;;;;;5.33;3.00;;;;;-144.62;100.00;60556.56;5041254;28;45481;-75
2024/01/05 08:12:56;;;;;;;;;1.00;1.00;;;;;-144.62;100.00;60556.56;5036457;28;45332;-76
2024/01/05 08:15:21;;;;;;;;;1.33;1.00;;;;;-144.62;100.00;60556.56;5040666;28;45285;-77
2024/01/05 08:17:47;;;;;;;;;1.67;1.00;;;;;-144.62;100.00;60556.56;5037945;28;45255;-75
2024/01/05 08:20:12;;;;;;;;;1.67;1.00;;;;;-144.62;100.00;60556.56;5040185;27;45482;-76
2024/01/05 08:22:38;;;;;;;;;3.00;1.33;;;;;-144.62;100.00;60556.56;5038293;28;45648;-76
2024/01/05 08:25:03;;;;;;;;;1.00;1.00;;;;;-144.62;100.00;60556.56;5040211;28;45204;-76
2024/01/05 08:27:29;;;;;;;;;3.33;1.67;;;;;-144.62;100.00;60556.56;5040154;28;45286;-75
2024/01/05 08:29:55;;;;;;;;;2.00;2.00;;;;;-144.62;100.00;60556.56;5041151;28;45232;-76
2024/01/05 08:32:20;;;;;;;;;2.33;0.00;;;;;-144.62;100.00;60556.56;5036544;27;46508;-76
2024/01/05 08:34:46;;;;;;;;;2.00;1.00;;;;;-144.62;100.00;60556.56;5039170;28;45740;-75
2024/01/05 08:37:11;;;;;;;;;0.67;0.67;;;;;-144.62;100.00;60556.56;5037850;28;46021;-75
2024/01/05 08:39:39;;;;;;;;;1.33;1.33;;;;;-144.62;100.00;60556.56;5040100;27;45464;-76
2024/01/05 08:42:05;;;;;;;;;3.33;2.00;;;;;-144.62;100.00;60556.56;5038553;28;46560;-75
2024/01/05 08:44:32;;;;;;;;;2.00;1.00;;;;;-144.62;100.00;60556.56;5038581;28;45181;-75
2024/01/05 08:46:58;;;;;;;;;2.00;2.00;;;;;-144.62;100.00;60556.56;5039042;28;45434;-76
2024/01/05 08:49:23;;;;;;;;;2.33;2.00;;;;;-144.62;100.00;60556.56;5040091;28;45473;-76
2024/01/05 08:51:49;;;;;;;;;1.00;1.00;;;;;-144.62;100.00;60556.56;5040025;28;45499;-76
2024/01/05 08:54:14;;;;;;;;;3.00;2.00;;;;;-144.62;100.00;60556.56;5039931;28;45214;-76
2024/01/05 08:56:40;;;;;;;;;4.00;3.00;;;;;-144.62;100.00;60556.56;5039519;28;45303;-75
2024/01/05 08:59:05;;;;;;;;;2.33;2.33;;;;;-144.62;100.00;60556.56;5041044;28;45457;-77
2024/01/05 09:01:34;;;;;;;;;3.00;1.33;;;;;-144.62;100.00;60556.56;5039568;27;45450;-76
2024/01/05 09:04:00;;;;;;;;;3.33;2.33;;;;;-144.62;100.00;60556.56;5038899;28;45435;-77
2024/01/05 09:06:25;;;;;;;;;3.00;3.00;;;;;-144.62;100.00;60556.56;5039911;27;45315;-77
2024/01/05 09:08:51;;;;;;;;;2.67;2.67;;;;;-144.62;100.00;60556.56;5039609;27;45630;-75
2024/01/05 09:11:17;;;;;;;;;6.00;4.00;;;;;-144.62;100.00;60556.56;5040403;28;46074;-75
2024/01/05 09:13:42;;;;;;;;;3.67;2.67;;;;;-144.62;100.00;60556.56;5037200;28;45995;-76
2024/01/05 09:16:08;;;;;;;;;6.00;3.67;;;;;-144.62;100.00;60556.56;5038876;28;45454;-77
2024/01/05 09:18:36;;;;;;;;;4.00;4.00;;;;;-144.62;100.00;60556.56;5037026;28;45205;-75
2024/01/05 09:21:02;;;;;;;;;6.00;6.00;;;;;-144.62;100.00;60556.56;5036322;28;45586;-78
2024/01/05 09:23:28;;;;;;;;;2.00;2.00;;;;;-144.62;100.00;60556.56;5037338;28;45410;-78
2024/01/05 09:25:53;;;;;;;;;4.00;2.00;;;;;-144.62;100.00;60556.56;5035833;28;45361;-77
2024/01/05 09:28:18;;;;;;;;;2.33;2.33;;;;;-144.62;100.00;60556.56;5035436;28;45420;-76
2024/01/05 09:30:44;;;;;;;;;2.00;2.00;;;;;-144.62;100.00;60556.56;5039676;28;46579;-77
2024/01/05 09:33:09;;;;;;;;;3.00;2.00;;;;;-144.62;100.00;60556.56;5037906;28;45638;-76
2024/01/05 09:35:35;;;;;;;;;1.00;1.00;;;;;-144.62;100.00;60556.56;5039691;28;45537;-75
2024/01/05 09:38:00;;;;;;;;;1.00;1.00;;;;;-144.62;100.00;60556.56;5037890;28;45451;-75
2024/01/05 09:40:26;;;;;;;;;0.00;0.00;;;;;-144.62;100.00;60556.56;5037150;28;46179;-76
2024/01/05 09:42:51;;;;;;;;;1.00;1.00;;;;;-144.62;100.00;60556.56;5036851;28;45364;-76
2024/01/05 09:45:21;;;;;;;;;3.00;2.00;;;;;-144.62;100.00;60556.56;5045001;28;45339;-76
2024/01/05 09:47:48;;;;;;;;;4.00;3.00;;;;;-144.62;100.00;60556.56;5030131;28;45538;-76
2024/01/05 09:50:15;;;;;;;;;2.33;1.33;;;;;-144.62;100.00;60556.56;5038856;28;45448;-76
2024/01/05 09:52:42;;;;;;;;;4.00;1.00;;;;;-144.62;100.00;60556.56;5030846;28;45347;-77
2024/01/05 09:55:08;;;;;;;;;3.33;2.33;;;;;-144.62;100.00;60556.56;5039424;28;45407;-76
2024/01/05 09:57:35;;;;;;;;;2.00;1.67;;;;;-144.62;100.00;60556.56;5038745;28;45548;-76
2024/01/05 10:00:03;;;;;;;;;2.00;2.00;;;;;-144.62;100.00;60556.56;5038315;28;45888;-76
2024/01/05 10:02:36;;;;;;;;;1.00;1.00;;;;;-144.62;100.00;60556.56;5038909;28;45373;-76
2024/01/05 10:05:01;;;;;;;;;2.67;1.00;;;;;-144.62;100.00;60556.56;5039339;28;45384;-75
2024/01/05 10:07:27;;;;;;;;;3.00;3.00;;;;;-144.62;100.00;60556.56;5036039;27;45387;-76
2024/01/05 10:09:54;;;;;;;;;2.00;2.00;;;;;-144.62;100.00;60556.56;5039323;27;47191;-77
2024/01/05 10:12:20;;;;;;;;;3.33;3.33;;;;;-144.62;100.00;60556.56;5039809;28;45315;-76
2024/01/05 10:14:47;;;;;;;;;1.00;1.00;;;;;-144.62;100.00;60556.56;5035879;28;45414;-76
2024/01/05 10:17:13;;;;;;;;;1.00;1.00;;;;;-144.62;100.00;60556.56;5037809;27;45624;-75
2024/01/05 10:19:41;;;;;;;;;1.67;1.00;;;;;-144.62;100.00;60556.56;5036121;28;47276;-75
2024/01/05 10:22:12;;;;;;;;;2.33;2.33;;;;;-144.62;100.00;60556.56;5039051;28;45547;-75
2024/01/05 10:24:38;;;;;;;;;2.00;1.00;;;;;-144.62;100.00;60556.56;5035770;28;46463;-75
2024/01/05 10:27:13;;;;;;;;;1.00;1.00;;;;;-144.62;100.00;60556.56;5037698;28;45635;-77
2024/01/05 10:29:43;;;;;;;;;3.67;1.67;;;;;-144.62;100.00;60556.56;5034676;28;45814;-76
2024/01/05 10:32:19;;;;;;;;;2.33;0.33;;;;;-144.62;100.00;60556.56;5032774;28;45434;-75
2024/01/05 10:34:46;;;;;;;;;2.00;2.00;;;;;-144.62;100.00;60556.56;5036628;27;45498;-75
2024/01/05 10:37:13;;;;;;;;;2.00;2.00;;;;;-144.62;100.00;60556.56;5036919;28;45174;-77
2024/01/05 10:39:39;;;;;;;;;1.67;1.00;;;;;-144.62;100.00;60556.56;5037227;28;47911;-75
2024/01/05 10:42:23;;;;;;;;;4.33;3.67;;;;;-144.62;100.00;60556.56;5029247;28;45428;-75
2024/01/05 10:44:53;;;;;;;;;1.00;1.00;;;;;-144.62;100.00;60556.56;5036952;28;45498;-75
2024/01/05 10:47:26;;;;;;;;;2.33;2.33;;;;;-144.62;100.00;60556.56;5038415;27;45499;-76
2024/01/05 10:49:53;;;;;;;;;3.00;2.00;;;;;-144.62;100.00;60556.56;5038579;28;45633;-76
2024/01/05 10:52:20;;;;;;;;;2.33;1.00;;;;;-144.62;100.00;60556.56;5038499;28;45544;-76
2024/01/05 10:54:47;;;;;;;;;2.33;1.67;;;;;-144.62;100.00;60556.56;5037485;28;45400;-76
2024/01/05 10:57:17;;;;;;;;;1.00;1.00;;;;;-144.62;100.00;60556.56;5039357;27;45656;-76
2024/01/05 10:59:50;;;;;;;;;4.33;3.00;;;;;-144.62;100.00;60556.56;5037119;28;45546;-77
2024/01/05 11:02:22;;;;;;;;;2.00;2.00;;;;;-144.62;100.00;60556.56;5038232;28;45683;-76
2024/01/05 11:04:56;;;;;;;;;3.00;3.00;;;;;-144.62;100.00;60556.56;5038752;28;45384;-76